Time;durP1;ratioP1;P1;durP2;ratioP2;P2;SDS_P1;SDS_P2;PMS_P1;PMS_P2;Temp;Humidity;BMP_temperature;BMP_pressure;BME280_temperature;BME280_humidity;BME280_pressure;Samples;Min_cycle;Max_cycle;Signal;HPM_P1;HPM_P2
2022/10/19 00:01:04;;;;;;;3.38;2.00;;;5.10;99.90;;;;;;5074731;28;20025;-74
2022/10/19 00:03:32;;;;;;;4.78;1.73;;;5.00;99.90;;;;;;5076427;28;20021;-74
2022/10/19 00:06:00;;;;;;;6.20;1.65;;;5.00;99.90;;;;;;5074707;28;20024;-74
2022/10/19 00:08:27;;;;;;;21.25;2.70;;;4.90;99.90;;;;;;5076027;28;20016;-74
2022/10/19 00:10:54;;;;;;;4.68;2.10;;;4.90;99.90;;;;;;5076094;28;20024;-74
2022/10/19 00:13:22;;;;;;;5.05;1.60;;;4.90;99.90;;;;;;5074929;28;20317;-74
2022/10/19 00:15:50;;;;;;;7.13;2.50;;;4.90;99.90;;;;;;5077892;28;20104;-74
2022/10/19 00:18:17;;;;;;;14.48;2.60;;;4.80;99.90;;;;;;5080020;28;20363;-74
2022/10/19 00:20:44;;;;;;;11.15;1.65;;;4.80;99.90;;;;;;5078783;28;20111;-74
2022/10/19 00:23:11;;;;;;;2.85;1.52;;;4.80;99.90;;;;;;5078856;28;20027;-74
2022/10/19 00:25:38;;;;;;;7.30;1.83;;;4.80;99.90;;;;;;5078064;28;20077;-74
2022/10/19 00:28:05;;;;;;;3.25;1.27;;;4.70;99.90;;;;;;5079699;28;20023;-74
2022/10/19 00:30:37;;;;;;;5.13;1.70;;;4.70;99.90;;;;;;5078002;28;20020;-74
2022/10/19 00:33:05;;;;;;;5.35;1.80;;;4.60;99.90;;;;;;5094907;28;20420;-74
2022/10/19 00:35:32;;;;;;;4.90;2.15;;;4.60;99.90;;;;;;5079531;28;20063;-74
2022/10/19 00:37:59;;;;;;;5.53;1.50;;;4.60;99.90;;;;;;5078056;28;20374;-74
2022/10/19 00:40:26;;;;;;;3.65;1.83;;;4.70;99.90;;;;;;5077774;28;20424;-74
2022/10/19 00:42:56;;;;;;;7.15;1.73;;;4.60;99.90;;;;;;5079314;28;20029;-74
2022/10/19 00:45:24;;;;;;;5.75;1.50;;;4.60;99.90;;;;;;5077699;28;20032;-74
2022/10/19 00:47:51;;;;;;;4.72;1.50;;;4.60;99.90;;;;;;5077842;28;20027;-74
2022/10/19 00:50:19;;;;;;;39.42;3.35;;;4.60;99.90;;;;;;5080126;28;20027;-74
2022/10/19 00:52:46;;;;;;;2.45;1.38;;;4.60;99.90;;;;;;5080985;28;20043;-74
2022/10/19 00:55:14;;;;;;;8.82;1.95;;;4.50;99.90;;;;;;5098868;28;20031;-74
2022/10/19 00:57:41;;;;;;;91.28;5.90;;;4.50;99.90;;;;;;5079742;28;20024;-74
2022/10/19 01:00:09;;;;;;;23.42;2.30;;;4.50;99.90;;;;;;5098744;28;20035;-74
2022/10/19 01:02:36;;;;;;;18.52;2.58;;;4.40;99.90;;;;;;5098685;28;20055;-74
2022/10/19 01:05:05;;;;;;;9.05;1.63;;;4.40;99.90;;;;;;5098666;28;20016;-74
2022/10/19 01:07:32;;;;;;;6.20;1.75;;;4.40;99.90;;;;;;5080880;28;20096;-74
2022/10/19 01:10:01;;;;;;;10.75;1.75;;;4.40;99.90;;;;;;5098812;28;20016;-74
2022/10/19 01:12:57;;;;;;;3.03;1.80;;;4.40;99.90;;;;;;5098517;28;20020;-73
2022/10/19 01:15:27;;;;;;;6.47;1.80;;;4.40;99.90;;;;;;5098752;28;20047;-74
2022/10/19 01:18:30;;;;;;;4.07;2.20;;;4.40;99.90;;;;;;5098876;28;20368;-74
2022/10/19 01:21:19;;;;;;;4.47;2.50;;;4.40;99.90;;;;;;5073392;28;20047;-74
2022/10/19 01:24:04;;;;;;;3.45;1.50;;;4.40;99.90;;;;;;5098611;28;20103;-74
2022/10/19 01:26:56;;;;;;;6.75;1.50;;;4.30;99.90;;;;;;5080144;28;20020;-74
2022/10/19 01:29:27;;;;;;;3.30;1.55;;;4.30;99.90;;;;;;5098387;28;20043;-74
2022/10/19 01:32:19;;;;;;;2.55;1.80;;;4.30;99.90;;;;;;5098721;28;20095;-74
2022/10/19 01:35:07;;;;;;;3.95;1.58;;;4.20;99.90;;;;;;5098370;28;20031;-74
2022/10/19 01:37:47;;;;;;;5.93;1.67;;;4.20;99.90;;;;;;5098763;28;20024;-74
2022/10/19 01:40:42;;;;;;;3.65;1.30;;;4.20;99.90;;;;;;5096564;28;20081;-74
2022/10/19 01:43:16;;;;;;;8.50;2.15;;;4.20;99.90;;;;;;5079895;28;20035;-74
2022/10/19 01:46:14;;;;;;;2.67;1.45;;;4.10;99.90;;;;;;5096766;28;20024;-74
2022/10/19 01:48:58;;;;;;;5.93;1.23;;;4.10;99.90;;;;;;5097954;28;20013;-74
2022/10/19 01:51:35;;;;;;;1.83;1.10;;;4.10;99.90;;;;;;5097503;28;20135;-74
2022/10/19 01:54:08;;;;;;;3.92;1.50;;;4.10;99.90;;;;;;5079780;28;20024;-74
2022/10/19 01:56:40;;;;;;;4.60;1.30;;;4.00;99.90;;;;;;5097941;28;20028;-74
2022/10/19 01:59:10;;;;;;;6.38;1.45;;;4.00;99.90;;;;;;5097650;28;20031;-74
2022/10/19 02:01:44;;;;;;;2.55;1.33;;;4.00;99.90;;;;;;5097396;28;20085;-74
2022/10/19 02:04:15;;;;;;;43.45;4.75;;;3.90;99.90;;;;;;5096396;28;20077;-73
2022/10/19 02:06:43;;;;;;;52.35;5.18;;;3.80;99.90;;;;;;5097460;28;20020;-74
2022/10/19 02:09:16;;;;;;;5.55;1.73;;;3.80;99.90;;;;;;5079089;28;20327;-74
2022/10/19 02:11:55;;;;;;;8.65;1.85;;;3.80;99.90;;;;;;5097715;28;20038;-74
2022/10/19 02:14:28;;;;;;;5.10;1.85;;;3.80;99.90;;;;;;5097323;28;20028;-74
2022/10/19 02:17:09;;;;;;;4.30;1.90;;;3.80;99.90;;;;;;5079485;28;20031;-74
2022/10/19 02:19:37;;;;;;;7.47;2.42;;;3.80;99.90;;;;;;5097533;28;20024;-73
2022/10/19 02:22:04;;;;;;;16.65;2.70;;;3.80;99.90;;;;;;5097465;28;20031;-74
2022/10/19 02:24:31;;;;;;;6.97;2.00;;;3.80;99.90;;;;;;5079181;28;20024;-74
2022/10/19 02:27:00;;;;;;;6.13;2.10;;;3.90;99.90;;;;;;5097412;28;20020;-74
2022/10/19 02:29:28;;;;;;;7.38;2.33;;;3.80;99.90;;;;;;5096955;28;20353;-74
2022/10/19 02:31:55;;;;;;;11.27;2.03;;;3.90;99.90;;;;;;5096520;28;20032;-74
2022/10/19 02:34:23;;;;;;;4.13;1.90;;;3.80;99.90;;;;;;5095662;28;20032;-74
2022/10/19 02:36:50;;;;;;;9.20;1.55;;;3.80;99.90;;;;;;5097177;28;20028;-74
2022/10/19 02:39:17;;;;;;;4.10;1.35;;;3.80;99.90;;;;;;5095562;28;20439;-74
2022/10/19 02:42:20;;;;;;;8.45;1.58;;;3.80;99.90;;;;;;5078893;28;20028;-74
2022/10/19 02:44:58;;;;;;;6.82;2.67;;;3.80;99.90;;;;;;5096812;28;20415;-74
2022/10/19 02:47:38;;;;;;;58.15;3.97;;;3.80;99.90;;;;;;5079060;28;20077;-74
2022/10/19 02:50:07;;;;;;;10.27;1.92;;;3.70;99.90;;;;;;5096800;28;20320;-74
2022/10/19 02:52:40;;;;;;;6.22;1.90;;;3.70;99.90;;;;;;5096638;28;20486;-74
2022/10/19 02:55:08;;;;;;;8.63;2.00;;;3.70;99.90;;;;;;5096734;28;20031;-74
2022/10/19 02:57:36;;;;;;;5.22;2.10;;;3.80;99.90;;;;;;5077670;28;20027;-74
2022/10/19 03:00:06;;;;;;;8.45;1.80;;;3.80;99.90;;;;;;5096974;28;20020;-74
2022/10/19 03:02:34;;;;;;;5.40;1.67;;;3.80;99.90;;;;;;5096666;28;20020;-74
2022/10/19 03:05:02;;;;;;;2.72;1.55;;;3.90;99.90;;;;;;5095529;28;20020;-74
2022/10/19 03:07:29;;;;;;;8.23;1.77;;;4.00;99.90;;;;;;5096280;28;20024;-74
2022/10/19 03:09:57;;;;;;;5.15;1.60;;;4.10;99.90;;;;;;5078658;28;20420;-73
2022/10/19 03:12:24;;;;;;;7.90;2.25;;;4.10;99.90;;;;;;5078711;28;20028;-74
2022/10/19 03:14:51;;;;;;;3.92;1.67;;;4.20;99.90;;;;;;5097040;28;20044;-74
2022/10/19 03:17:18;;;;;;;7.80;1.83;;;4.30;99.90;;;;;;5096164;28;20028;-73
2022/10/19 03:19:46;;;;;;;2.78;1.40;;;4.30;99.90;;;;;;5096511;28;20043;-74
2022/10/19 03:22:14;;;;;;;5.07;1.98;;;4.40;99.90;;;;;;5078776;28;20126;-74
2022/10/19 03:24:41;;;;;;;5.00;1.70;;;4.50;99.90;;;;;;5078517;28;20497;-74
2022/10/19 03:27:08;;;;;;;7.38;2.10;;;4.60;99.90;;;;;;5096641;28;20315;-74
2022/10/19 03:29:36;;;;;;;11.32;2.17;;;4.60;99.90;;;;;;5096916;28;20465;-74
2022/10/19 03:32:03;;;;;;;7.63;2.00;;;4.70;99.90;;;;;;5078502;28;20032;-74
2022/10/19 03:34:31;;;;;;;11.20;2.67;;;4.80;99.90;;;;;;5096594;28;20024;-74
2022/10/19 03:36:58;;;;;;;4.68;2.22;;;4.90;99.90;;;;;;5078012;28;20081;-74
2022/10/19 03:39:25;;;;;;;9.20;2.50;;;5.00;99.90;;;;;;5094938;28;20029;-74
2022/10/19 03:41:53;;;;;;;6.40;2.20;;;5.00;99.90;;;;;;5096701;28;20059;-74
2022/10/19 03:44:20;;;;;;;3.67;2.05;;;5.10;99.90;;;;;;5096360;28;20083;-74
2022/10/19 03:46:48;;;;;;;8.93;2.58;;;5.10;99.90;;;;;;5096795;28;20028;-74
2022/10/19 03:49:15;;;;;;;8.38;2.83;;;5.20;99.90;;;;;;5096255;28;20523;-74
2022/10/19 03:51:42;;;;;;;5.85;2.17;;;5.20;99.90;;;;;;5099792;28;20063;-74
2022/10/19 03:54:14;;;;;;;4.53;2.33;;;5.30;99.90;;;;;;5100293;28;20027;-74
2022/10/19 03:56:42;;;;;;;11.10;2.50;;;5.30;99.90;;;;;;5100283;28;20025;-74
2022/10/19 03:59:13;;;;;;;6.50;2.58;;;5.40;99.90;;;;;;5082081;28;20419;-74
2022/10/19 04:01:43;;;;;;;6.78;2.78;;;5.40;99.90;;;;;;5098719;28;20462;-74
2022/10/19 04:04:16;;;;;;;11.38;2.40;;;5.40;99.90;;;;;;5098813;28;20020;-74
2022/10/19 04:06:47;;;;;;;9.18;3.30;;;5.50;99.90;;;;;;5100389;28;20017;-74
2022/10/19 04:09:18;;;;;;;8.05;2.85;;;5.50;99.90;;;;;;5098674;28;20116;-74
2022/10/19 04:11:45;;;;;;;22.60;3.60;;;5.60;99.90;;;;;;5100546;28;20362;-74
2022/10/19 04:14:15;;;;;;;7.90;3.13;;;5.70;99.90;;;;;;5099620;28;20024;-74
2022/10/19 04:16:43;;;;;;;9.70;3.35;;;5.70;99.90;;;;;;5098555;28;20078;-74
2022/10/19 04:19:15;;;;;;;11.43;3.38;;;5.70;99.90;;;;;;5100004;28;20027;-74
2022/10/19 04:21:43;;;;;;;18.38;4.85;;;5.80;99.90;;;;;;5099493;28;20117;-74
2022/10/19 04:24:16;;;;;;;10.60;3.67;;;5.80;99.90;;;;;;5099428;28;20027;-74
2022/10/19 04:26:49;;;;;;;8.88;2.90;;;5.90;99.90;;;;;;5098929;28;20039;-74
2022/10/19 04:29:18;;;;;;;9.82;2.75;;;5.90;99.90;;;;;;5099620;28;20407;-74
2022/10/19 04:31:48;;;;;;;5.00;2.83;;;6.00;99.90;;;;;;5099627;28;20063;-74
2022/10/19 04:34:15;;;;;;;6.47;3.25;;;6.00;99.90;;;;;;5099321;28;20051;-74
2022/10/19 04:36:42;;;;;;;10.45;2.72;;;6.10;99.90;;;;;;5099270;28;20028;-74
2022/10/19 04:39:10;;;;;;;7.72;2.92;;;6.10;99.90;;;;;;5081247;28;20028;-74
2022/10/19 04:41:38;;;;;;;6.30;2.95;;;6.10;99.90;;;;;;5099254;28;20067;-74
2022/10/19 04:44:06;;;;;;;12.32;3.45;;;6.10;99.90;;;;;;5099321;28;20016;-74
2022/10/19 04:46:34;;;;;;;8.38;3.63;;;6.10;99.90;;;;;;5080580;28;20028;-74
2022/10/19 04:49:03;;;;;;;17.98;4.25;;;6.20;99.90;;;;;;5097924;28;20114;-74
2022/10/19 04:51:30;;;;;;;10.52;3.97;;;6.20;99.90;;;;;;5077335;28;20040;-74
2022/10/19 04:53:58;;;;;;;10.52;3.80;;;6.20;99.90;;;;;;5078936;28;20055;-74
2022/10/19 04:56:29;;;;;;;9.68;3.67;;;6.30;99.90;;;;;;5079164;28;20021;-74
2022/10/19 04:58:57;;;;;;;13.10;3.60;;;6.30;99.90;;;;;;5078505;28;20107;-74
2022/10/19 05:01:27;;;;;;;9.90;3.60;;;6.40;99.90;;;;;;5078532;28;20074;-74
2022/10/19 05:03:59;;;;;;;8.30;3.47;;;6.40;99.90;;;;;;5077408;28;20070;-74
2022/10/19 05:06:26;;;;;;;14.18;4.03;;;6.40;99.90;;;;;;5078077;28;20029;-74
2022/10/19 05:08:54;;;;;;;5.40;3.35;;;6.40;99.90;;;;;;5078827;28;20099;-74
2022/10/19 05:11:22;;;;;;;10.10;3.58;;;6.50;99.90;;;;;;5077469;28;20108;-74
2022/10/19 05:13:50;;;;;;;9.93;3.55;;;6.50;99.90;;;;;;5078520;28;20297;-74
2022/10/19 05:16:20;;;;;;;12.27;4.13;;;6.50;99.90;;;;;;5078465;28;20024;-74
2022/10/19 05:18:49;;;;;;;7.95;3.65;;;6.50;99.90;;;;;;5077968;28;20428;-74
2022/10/19 05:21:17;;;;;;;15.57;4.47;;;6.50;99.90;;;;;;5077713;28;20442;-74
2022/10/19 05:23:45;;;;;;;11.35;4.72;;;6.60;99.90;;;;;;5078119;28;20039;-74
2022/10/19 05:26:16;;;;;;;14.43;4.50;;;6.60;99.90;;;;;;5078004;28;20012;-74
2022/10/19 05:28:48;;;;;;;13.68;5.10;;;6.60;99.90;;;;;;5078095;28;20013;-74
2022/10/19 05:31:18;;;;;;;14.65;4.85;;;6.60;99.90;;;;;;5078175;28;20055;-74
2022/10/19 05:33:46;;;;;;;14.15;5.78;;;6.70;99.90;;;;;;5077912;28;20442;-74
2022/10/19 05:36:19;;;;;;;8.98;5.07;;;6.70;99.90;;;;;;5078075;28;20029;-74
2022/10/19 05:38:48;;;;;;;13.45;5.60;;;6.80;99.90;;;;;;5078235;28;20032;-74
2022/10/19 05:41:16;;;;;;;10.20;5.25;;;6.80;99.90;;;;;;5078199;28;20055;-74
2022/10/19 05:43:45;;;;;;;15.20;5.32;;;6.90;99.90;;;;;;5093405;28;20024;-74
2022/10/19 05:46:17;;;;;;;13.77;6.13;;;6.90;99.90;;;;;;5076015;28;20032;-74
2022/10/19 05:48:45;;;;;;;14.73;6.15;;;6.90;99.90;;;;;;5077777;28;20028;-74
2022/10/19 05:51:15;;;;;;;20.92;7.05;;;7.00;99.90;;;;;;5075774;28;20055;-74
2022/10/19 05:53:43;;;;;;;10.05;5.38;;;7.00;99.90;;;;;;5077836;28;20021;-75
2022/10/19 05:56:20;;;;;;;18.13;5.28;;;7.00;99.90;;;;;;5077436;28;20035;-75
2022/10/19 05:58:48;;;;;;;9.75;4.82;;;7.00;99.90;;;;;;5076971;28;20029;-75
2022/10/19 06:01:17;;;;;;;14.50;5.10;;;7.10;99.90;;;;;;5077558;28;20031;-75
2022/10/19 06:03:46;;;;;;;13.20;5.45;;;7.10;99.90;;;;;;5077266;28;20016;-75
2022/10/19 06:06:13;;;;;;;14.63;5.20;;;7.10;99.90;;;;;;5093086;28;20139;-75
2022/10/19 06:08:41;;;;;;;9.88;5.35;;;7.20;99.90;;;;;;5077642;28;20092;-75
2022/10/19 06:11:15;;;;;;;19.00;7.15;;;7.20;99.90;;;;;;5077125;28;20032;-75
2022/10/19 06:13:44;;;;;;;20.95;5.95;;;7.30;99.90;;;;;;5075205;28;20442;-75
2022/10/19 06:16:14;;;;;;;12.25;5.32;;;7.30;99.90;;;;;;5076720;28;20032;-76
2022/10/19 06:18:41;;;;;;;9.68;5.38;;;7.30;99.90;;;;;;5077219;28;20020;-75
2022/10/19 06:21:12;;;;;;;11.48;6.03;;;7.40;99.90;;;;;;5076063;28;20020;-76
2022/10/19 06:23:40;;;;;;;11.30;6.00;;;7.40;99.90;;;;;;5076980;28;20101;-77
2022/10/19 06:26:10;;;;;;;10.88;5.88;;;7.50;99.90;;;;;;5075857;28;20028;-81
2022/10/19 06:28:39;;;;;;;12.20;6.03;;;7.50;99.90;;;;;;5075890;28;20024;-81
2022/10/19 06:31:07;;;;;;;14.55;5.90;;;7.60;99.90;;;;;;5075740;28;20324;-81
2022/10/19 06:33:36;;;;;;;9.80;5.32;;;7.60;99.90;;;;;;5077134;28;20041;-80
2022/10/19 06:36:07;;;;;;;11.32;5.65;;;7.60;99.90;;;;;;5075744;28;20029;-82
2022/10/19 06:38:35;;;;;;;11.77;5.28;;;7.70;99.90;;;;;;5077180;28;20066;-80
2022/10/19 06:41:03;;;;;;;16.23;5.95;;;7.70;99.90;;;;;;5074257;28;20116;-80
2022/10/19 06:43:30;;;;;;;22.42;7.25;;;7.80;99.90;;;;;;5075538;28;20016;-80
2022/10/19 06:45:57;;;;;;;20.45;6.47;;;7.80;99.90;;;;;;5075624;28;20048;-80
2022/10/19 06:48:24;;;;;;;15.93;5.70;;;7.90;99.90;;;;;;5075772;28;20079;-81
2022/10/19 06:51:00;;;;;;;10.30;5.10;;;7.90;99.90;;;;;;5075322;28;20037;-81
2022/10/19 06:53:28;;;;;;;10.77;5.20;;;8.00;99.90;;;;;;5075575;28;20024;-80
2022/10/19 06:56:04;;;;;;;13.73;6.05;;;8.00;99.90;;;;;;5076505;28;20032;-79
2022/10/19 06:58:35;;;;;;;;;;;8.10;99.90;;;;;;5077059;28;20086;-78
2022/10/19 07:01:03;;;;;;;11.52;5.45;;;8.10;99.90;;;;;;5075395;28;19994;-79
2022/10/19 07:03:30;;;;;;;11.27;5.80;;;8.20;99.90;;;;;;5075414;28;20025;-80
2022/10/19 07:05:59;;;;;;;13.07;6.90;;;8.30;99.90;;;;;;5092242;28;20024;-80
2022/10/19 07:08:28;;;;;;;12.07;5.88;;;8.30;99.90;;;;;;5076892;28;20025;-80
2022/10/19 07:10:58;;;;;;;15.55;6.47;;;8.40;99.90;;;;;;5075320;28;20016;-80
2022/10/19 07:13:26;;;;;;;12.18;6.43;;;8.50;99.90;;;;;;5076353;28;20024;-80
2022/10/19 07:16:05;;;;;;;14.88;6.30;;;8.60;99.90;;;;;;5074795;28;20025;-81
2022/10/19 07:18:34;;;;;;;15.05;5.97;;;8.60;99.90;;;;;;5076482;28;20045;-80
2022/10/19 07:21:09;;;;;;;12.38;6.05;;;8.70;99.90;;;;;;5075147;28;20086;-81
2022/10/19 07:23:38;;;;;;;11.48;5.63;;;8.70;99.90;;;;;;5075858;28;20078;-86
2022/10/19 07:26:16;;;;;;;11.07;6.28;;;8.80;99.90;;;;;;5079487;28;20025;-86
2022/10/19 07:28:45;;;;;;;13.85;6.13;;;8.90;99.90;;;;;;5079133;28;20028;-80
2022/10/19 07:31:16;;;;;;;15.88;5.53;;;9.00;99.90;;;;;;5079171;28;20027;-81
2022/10/19 07:33:44;;;;;;;12.85;6.10;;;9.10;99.90;;;;;;5079327;28;20017;-80
2022/10/19 07:36:12;;;;;;;15.80;5.65;;;9.20;99.90;;;;;;5079087;28;20024;-80
2022/10/19 07:38:40;;;;;;;11.90;5.20;;;9.20;99.90;;;;;;5080135;28;20021;-81
2022/10/19 07:41:13;;;;;;;18.08;5.75;;;9.20;99.90;;;;;;5080300;28;20317;-82
2022/10/19 07:43:42;;;;;;;8.63;5.43;;;9.30;99.90;;;;;;5080140;28;20450;-79
2022/10/19 07:46:13;;;;;;;10.95;5.75;;;9.40;99.90;;;;;;5080212;28;20024;-79
2022/10/19 07:48:41;;;;;;;9.88;5.13;;;9.50;99.90;;;;;;5079580;28;20032;-79
2022/10/19 07:51:10;;;;;;;10.50;5.32;;;9.60;99.90;;;;;;5078610;28;20060;-82
2022/10/19 07:53:38;;;;;;;12.65;5.03;;;9.60;99.90;;;;;;5079282;28;20048;-81
2022/10/19 07:56:15;;;;;;;15.70;5.82;;;9.80;99.90;;;;;;5078665;28;20027;-81
2022/10/19 07:58:43;;;;;;;15.82;4.72;;;9.90;99.90;;;;;;5095478;28;20115;-82
2022/10/19 08:01:20;;;;;;;9.80;4.72;;;10.00;99.90;;;;;;5079798;28;20052;-81
2022/10/19 08:03:48;;;;;;;8.60;4.65;;;10.00;99.90;;;;;;5079785;28;20021;-78
2022/10/19 08:06:17;;;;;;;13.13;4.95;;;10.20;99.90;;;;;;5095427;28;20024;-77
2022/10/19 08:08:45;;;;;;;17.88;5.38;;;10.30;99.90;;;;;;5079848;28;20305;-78
2022/10/19 08:11:17;;;;;;;9.57;5.47;;;10.40;99.90;;;;;;5079680;28;20075;-83
2022/10/19 08:13:45;;;;;;;13.73;4.60;;;10.50;99.90;;;;;;5078407;28;20052;-79
2022/10/19 08:16:25;;;;;;;8.85;3.78;;;10.60;99.90;;;;;;5079647;28;20028;-81
2022/10/19 08:18:57;;;;;;;7.72;3.10;;;10.70;99.90;;;;;;5079421;28;20020;-78
2022/10/19 08:21:26;;;;;;;18.67;3.92;;;10.80;99.90;;;;;;5079180;28;20035;-77
2022/10/19 08:23:53;;;;;;;14.15;4.30;;;10.90;99.90;;;;;;5078325;28;20020;-78
2022/10/19 08:26:20;;;;;;;7.70;3.55;;;10.90;99.90;;;;;;5078101;28;20036;-75
2022/10/19 08:28:48;;;;;;;10.52;3.72;;;11.10;99.90;;;;;;5079255;28;20048;-74
2022/10/19 08:31:18;;;;;;;6.60;3.30;;;11.10;99.90;;;;;;5079630;28;20051;-77
2022/10/19 08:33:48;;;;;;;10.85;3.95;;;11.20;99.90;;;;;;5095146;28;20024;-75
2022/10/19 08:36:18;;;;;;;6.35;3.33;;;11.30;99.90;;;;;;5078408;28;20044;-82
2022/10/19 08:38:48;;;;;;;5.53;3.15;;;11.40;99.90;;;;;;5078954;28;20016;-81
2022/10/19 08:41:32;;;;;;;9.93;3.83;;;11.50;99.90;;;;;;5078835;28;20375;-81
2022/10/19 08:44:15;;;;;;;10.32;3.60;;;11.60;99.90;;;;;;5077742;28;20016;-80
2022/10/19 08:46:52;;;;;;;7.88;3.13;;;11.70;99.90;;;;;;5077846;28;20417;-80
2022/10/19 08:49:25;;;;;;;13.90;3.00;;;11.80;99.90;;;;;;5077739;28;20025;-80
2022/10/19 08:52:01;;;;;;;8.68;2.40;;;11.90;99.90;;;;;;5092310;28;20047;-81
2022/10/19 08:54:40;;;;;;;8.80;2.45;;;11.90;99.90;;;;;;5080980;28;20028;-80
2022/10/19 08:57:30;;;;;;;6.97;2.20;;;12.00;99.90;;;;;;5098884;28;20036;-80
2022/10/19 09:00:18;;;;;;;9.75;2.53;;;12.00;99.90;;;;;;5099162;28;20031;-80
2022/10/19 09:02:49;;;;;;;10.85;2.35;;;12.10;99.90;;;;;;5080892;28;20024;-84
2022/10/19 09:05:28;;;;;;;11.05;1.95;;;12.10;99.90;;;;;;5098976;28;20320;-80
2022/10/19 09:07:55;;;;;;;8.80;2.00;;;12.20;99.90;;;;;;5080998;28;20050;-81
2022/10/19 09:10:31;;;;;;;5.43;2.15;;;12.30;99.90;;;;;;5098642;28;20017;-81
2022/10/19 09:13:01;;;;;;;;;;;12.30;99.90;;;;;;5097966;28;20027;-79
2022/10/19 09:15:44;;;;;;;8.10;1.73;;;12.40;99.90;;;;;;5098535;28;19904;-83
2022/10/19 09:18:19;;;;;;;13.90;2.10;;;12.50;99.90;;;;;;5098835;28;20024;-75
2022/10/19 09:20:52;;;;;;;;;;;12.50;99.90;;;;;;5097781;28;20351;-79
2022/10/19 09:23:39;;;;;;;6.00;2.15;;;12.50;99.90;;;;;;5080467;28;19908;-76
2022/10/19 09:26:30;;;;;;;6.35;1.98;;;12.60;99.90;;;;;;5098304;28;20415;-82
2022/10/19 09:29:01;;;;;;;7.18;2.55;;;12.50;99.90;;;;;;5098348;28;20481;-81
2022/10/19 09:31:36;;;;;;;7.85;2.45;;;12.50;99.90;;;;;;5098465;28;20100;-77
2022/10/19 09:34:41;;;;;;;9.20;1.80;;;12.50;99.90;;;;;;5097007;28;20056;-76
2022/10/19 09:37:10;;;;;;;9.35;2.08;;;12.60;99.90;;;;;;5098133;28;20085;-77
2022/10/19 09:39:38;;;;;;;6.22;2.42;;;12.60;99.90;;;;;;5098053;28;20338;-76
2022/10/19 09:42:22;;;;;;;12.77;2.92;;;12.60;99.90;;;;;;5098135;28;20030;-76
2022/10/19 09:44:51;;;;;;;7.38;2.42;;;12.60;99.90;;;;;;5098414;28;20019;-76
2022/10/19 09:47:40;;;;;;;7.30;2.30;;;12.60;99.90;;;;;;5080198;28;20315;-78
2022/10/19 09:50:22;;;;;;;7.22;2.13;;;12.70;99.90;;;;;;5097904;28;20293;-75
2022/10/19 09:53:02;;;;;;;6.20;2.75;;;12.80;99.90;;;;;;5056693;28;20037;-75
2022/10/19 09:55:44;;;;;;;8.30;1.98;;;12.90;99.90;;;;;;5056389;28;20040;-80
2022/10/19 09:58:15;;;;;;;8.77;2.67;;;13.00;99.90;;;;;;5057389;28;20021;-76
2022/10/19 10:00:46;;;;;;;7.22;1.92;;;13.00;99.90;;;;;;5056343;28;20033;-77
2022/10/19 10:03:34;;;;;;;6.07;1.33;;;13.00;99.90;;;;;;5057128;28;20040;-76
2022/10/19 10:06:16;;;;;;;7.47;1.17;;;13.00;99.90;;;;;;5057264;28;20020;-76
2022/10/19 10:08:49;;;;;;;6.93;1.10;;;13.10;99.90;;;;;;5056227;28;20032;-76
2022/10/19 10:11:31;;;;;;;7.30;1.23;;;13.10;99.90;;;;;;5056162;28;20025;-76
2022/10/19 10:14:05;;;;;;;7.57;1.42;;;13.20;99.90;;;;;;5057266;28;20428;-76
2022/10/19 10:16:35;;;;;;;6.90;1.90;;;13.30;99.90;;;;;;5057108;28;20413;-76
2022/10/19 10:19:14;;;;;;;4.38;1.77;;;13.30;99.90;;;;;;5057043;28;20021;-76
2022/10/19 10:21:56;;;;;;;11.65;1.65;;;13.40;99.90;;;;;;5057173;28;20032;-76
2022/10/19 10:24:26;;;;;;;6.93;1.65;;;13.40;99.90;;;;;;5055958;28;20325;-76
2022/10/19 10:27:03;;;;;;;4.95;1.70;;;13.40;99.90;;;;;;5072642;28;20162;-76
2022/10/19 10:29:37;;;;;;;5.28;1.73;;;13.40;99.90;;;;;;5055804;28;20025;-76
2022/10/19 10:32:21;;;;;;;12.48;1.50;;;13.50;99.90;;;;;;5057168;28;20025;-76
2022/10/19 10:34:55;;;;;;;3.50;0.82;;;13.50;99.90;;;;;;5055762;28;20032;-76
2022/10/19 10:37:30;;;;;;;5.47;1.08;;;13.50;99.90;;;;;;5057039;28;20324;-76
2022/10/19 10:39:57;;;;;;;4.93;1.10;;;13.40;99.90;;;;;;5056752;28;20021;-76
2022/10/19 10:42:42;;;;;;;8.60;1.08;;;13.50;99.90;;;;;;5056623;28;20104;-76
2022/10/19 10:45:27;;;;;;;5.78;1.00;;;13.50;99.90;;;;;;5072413;28;20328;-76
2022/10/19 10:47:55;;;;;;;4.78;1.20;;;13.50;99.90;;;;;;5057101;28;20018;-76
2022/10/19 10:50:36;;;;;;;6.68;0.80;;;13.60;99.90;;;;;;5058065;28;20017;-76
2022/10/19 10:53:28;;;;;;;3.53;1.00;;;13.70;99.90;;;;;;5097121;28;20031;-76
2022/10/19 10:55:57;;;;;;;13.25;2.75;;;13.70;99.90;;;;;;5096986;28;20442;-78
2022/10/19 10:59:03;;;;;;;3.42;1.17;;;13.80;99.90;;;;;;5095133;28;20028;-77
2022/10/19 11:01:44;;;;;;;4.78;1.10;;;13.90;99.90;;;;;;5096605;28;20020;-77
2022/10/19 11:04:22;;;;;;;8.02;1.83;;;14.00;99.90;;;;;;5096946;28;20042;-78
2022/10/19 11:07:01;;;;;;;5.95;1.10;;;14.10;99.90;;;;;;5096656;28;20017;-78
2022/10/19 11:09:46;;;;;;;4.72;1.15;;;14.20;99.90;;;;;;5096647;28;20062;-77
2022/10/19 11:12:18;;;;;;;7.35;1.38;;;14.30;99.90;;;;;;5097219;28;20024;-78
2022/10/19 11:14:53;;;;;;;7.63;0.80;;;14.30;99.90;;;;;;5095372;28;20024;-78
2022/10/19 11:17:29;;;;;;;8.02;1.15;;;14.20;99.90;;;;;;5095494;28;20027;-78
2022/10/19 11:19:57;;;;;;;7.28;1.30;;;14.10;99.90;;;;;;5095456;28;20447;-79
2022/10/19 11:22:55;;;;;;;3.90;1.00;;;14.10;99.90;;;;;;5096567;28;20161;-79
2022/10/19 11:25:35;;;;;;;4.68;1.23;;;14.10;99.90;;;;;;5096962;28;20022;-78
2022/10/19 11:28:06;;;;;;;5.60;1.30;;;14.00;99.90;;;;;;5096724;28;20035;-91
2022/10/19 11:30:56;;;;;;;2.70;0.98;;;14.00;99.90;;;;;;5078508;28;20111;-77
2022/10/19 11:33:42;;;;;;;5.55;1.05;;;13.90;99.90;;;;;;5096617;28;20046;-77
2022/10/19 11:36:27;;;;;;;4.25;1.02;;;13.90;99.90;;;;;;5097178;28;20025;-77
2022/10/19 11:39:18;;;;;;;5.25;1.67;;;13.90;99.90;;;;;;5096725;28;20046;-77
2022/10/19 11:42:00;;;;;;;4.93;1.20;;;13.90;99.90;;;;;;5096420;28;20102;-77
2022/10/19 11:44:59;;;;;;;8.98;1.33;;;14.00;99.90;;;;;;5095223;28;20051;-77
2022/10/19 11:47:58;;;;;;;6.13;0.90;;;14.10;99.90;;;;;;5096640;28;20016;-77
2022/10/19 11:50:52;;;;;;;4.95;1.35;;;14.10;99.90;;;;;;5096180;28;20024;-75
2022/10/19 11:53:48;;;;;;;6.80;1.30;;;14.20;99.90;;;;;;5096375;28;20039;-75
2022/10/19 11:56:31;;;;;;;5.63;1.40;;;14.30;99.90;;;;;;5096550;28;20020;-75
2022/10/19 11:59:32;;;;;;;4.20;1.02;;;14.30;99.90;;;;;;5096101;28;20270;-75
2022/10/19 12:02:23;;;;;;;7.65;1.60;;;14.40;99.90;;;;;;5095101;28;20028;-76
2022/10/19 12:05:25;;;;;;;9.07;1.45;;;14.40;99.90;;;;;;5096131;28;20301;-76
2022/10/19 12:08:17;;;;;;;5.70;1.58;;;14.40;99.90;;;;;;5093767;28;20028;-79
2022/10/19 12:11:03;;;;;;;5.70;1.38;;;14.40;99.90;;;;;;5096912;28;20024;-78
2022/10/19 12:13:59;;;;;;;6.22;1.23;;;14.40;99.90;;;;;;5081671;28;20034;-77
2022/10/19 12:16:34;;;;;;;;;;;14.40;99.90;;;;;;5099744;28;20039;-79
2022/10/19 12:19:05;;;;;;;4.22;1.17;;;14.50;99.90;;;;;;5099924;28;19953;-79
2022/10/19 12:21:41;;;;;;;3.50;0.77;;;14.50;99.90;;;;;;5081534;28;20028;-82
2022/10/19 12:24:22;;;;;;;7.85;1.70;;;14.50;99.90;;;;;;5099518;28;20438;-80
2022/10/19 12:26:51;;;;;;;3.10;1.38;;;14.50;99.90;;;;;;5081573;28;20024;-80
2022/10/19 12:29:23;;;;;;;2.53;0.73;;;14.50;99.90;;;;;;5099403;28;20024;-79
2022/10/19 12:31:53;;;;;;;4.03;0.70;;;14.50;99.90;;;;;;5099846;28;20032;-78
2022/10/19 12:34:36;;;;;;;5.40;1.08;;;14.60;99.90;;;;;;5099620;28;20020;-82
2022/10/19 12:37:27;;;;;;;5.70;1.13;;;14.60;99.90;;;;;;5098235;28;20051;-82
2022/10/19 12:40:05;;;;;;;6.55;1.52;;;14.60;99.90;;;;;;5081302;28;20028;-81
2022/10/19 12:42:57;;;;;;;3.75;1.10;;;14.60;99.90;;;;;;5081242;28;20024;-81
2022/10/19 12:45:48;;;;;;;6.45;1.00;;;14.60;99.90;;;;;;5099115;28;20020;-80
2022/10/19 12:48:18;;;;;;;6.75;0.93;;;14.60;99.90;;;;;;5094111;28;20112;-80
2022/10/19 12:50:49;;;;;;;8.23;0.88;;;14.50;99.90;;;;;;5098790;28;20085;-82
2022/10/19 12:53:29;;;;;;;12.60;2.45;;;14.50;99.90;;;;;;5081272;28;20111;-81
2022/10/19 12:56:04;;;;;;;4.68;0.93;;;14.40;99.90;;;;;;5098955;28;20031;-78
2022/10/19 12:58:47;;;;;;;3.97;0.77;;;14.50;99.90;;;;;;5099105;28;20028;-82
2022/10/19 13:01:28;;;;;;;4.65;0.70;;;14.50;99.90;;;;;;5099072;28;20016;-79
2022/10/19 13:04:18;;;;;;;10.95;1.75;;;14.50;99.90;;;;;;5098974;28;20074;-81
2022/10/19 13:07:01;;;;;;;2.28;0.75;;;14.50;99.90;;;;;;5097642;28;20020;-81
2022/10/19 13:09:35;;;;;;;2.67;0.73;;;14.40;99.90;;;;;;5080692;28;20024;-78
2022/10/19 13:12:16;;;;;;;6.53;1.45;;;14.40;99.90;;;;;;5098763;28;20032;-78
2022/10/19 13:15:01;;;;;;;5.03;0.73;;;14.40;99.90;;;;;;5098535;28;20059;-78
2022/10/19 13:17:39;;;;;;;6.07;0.90;;;14.30;99.90;;;;;;5098545;28;20154;-78
2022/10/19 13:20:14;;;;;;;7.03;1.05;;;14.30;99.90;;;;;;5080450;28;20355;-78
2022/10/19 13:23:12;;;;;;;3.40;1.10;;;14.20;99.90;;;;;;5080542;28;20032;-78
2022/10/19 13:25:41;;;;;;;3.90;0.95;;;14.20;99.90;;;;;;5061608;28;20419;-78